sensor_id;sensor_type;location;lat;lon;timestamp;pressure;altitude;pressure_sealevel;temperature;humidity
80911;BME280;70359;51.420;7.032;2024-01-27T00:00:48;1018.807;;;6.69;55.29297
80911;BME280;70359;51.420;7.032;2024-01-27T00:03:13;1018.852;;;6.54;56.11523
80911;BME280;70359;51.420;7.032;2024-01-27T00:05:38;1018.877;;;6.4;55.97363
80911;BME280;70359;51.420;7.032;2024-01-27T00:08:03;1018.895;;;6.54;55.6543
80911;BME280;70359;51.420;7.032;2024-01-27T00:10:28;1018.973;;;6.63;54.78027
80911;BME280;70359;51.420;7.032;2024-01-27T00:12:53;1018.981;;;6.58;55.24609
80911;BME280;70359;51.420;7.032;2024-01-27T00:15:18;1019.015;;;6.66;54.86328
80911;BME280;70359;51.420;7.032;2024-01-27T00:17:43;1019.005;;;6.6;55.05566
80911;BME280;70359;51.420;7.032;2024-01-27T00:20:09;1018.995;;;6.67;54.66113
80911;BME280;70359;51.420;7.032;2024-01-27T00:22:33;1018.956;;;6.66;54.81738
80911;BME280;70359;51.420;7.032;2024-01-27T00:24:58;1018.949;;;6.62;54.54199
80911;BME280;70359;51.420;7.032;2024-01-27T00:27:23;1018.925;;;6.61;55.02441
80911;BME280;70359;51.420;7.032;2024-01-27T00:29:48;1018.933;;;6.68;54.73047
80911;BME280;70359;51.420;7.032;2024-01-27T00:32:13;1018.972;;;6.71;54.63281
80911;BME280;70359;51.420;7.032;2024-01-27T00:34:38;1019.034;;;6.63;54.9375
80911;BME280;70359;51.420;7.032;2024-01-27T00:37:03;1019.096;;;6.66;54.7832
80911;BME280;70359;51.420;7.032;2024-01-27T00:39:28;1019.181;;;6.53;54.83496
80911;BME280;70359;51.420;7.032;2024-01-27T00:41:53;1019.22;;;6.46;55.12891
80911;BME280;70359;51.420;7.032;2024-01-27T00:44:18;1019.256;;;6.5;54.94238
80911;BME280;70359;51.420;7.032;2024-01-27T00:46:43;1019.259;;;6.53;55.04688
80911;BME280;70359;51.420;7.032;2024-01-27T00:49:08;1019.284;;;6.58;54.57227
80911;BME280;70359;51.420;7.032;2024-01-27T00:51:33;1019.288;;;6.44;55.30469
80911;BME280;70359;51.420;7.032;2024-01-27T00:53:58;1019.255;;;6.49;55.2666
80911;BME280;70359;51.420;7.032;2024-01-27T00:56:23;1019.298;;;6.27;56.03613
80911;BME280;70359;51.420;7.032;2024-01-27T00:58:48;1019.324;;;6.36;55.13867
80911;BME280;70359;51.420;7.032;2024-01-27T01:01:15;1019.327;;;6.19;56.11523
80911;BME280;70359;51.420;7.032;2024-01-27T01:03:38;1019.341;;;6.14;55.38086
80911;BME280;70359;51.420;7.032;2024-01-27T01:06:03;1019.31;;;6.06;56.6709
80911;BME280;70359;51.420;7.032;2024-01-27T01:08:28;1019.328;;;6.08;56.06641
80911;BME280;70359;51.420;7.032;2024-01-27T01:10:53;1019.295;;;6;56.39355
80911;BME280;70359;51.420;7.032;2024-01-27T01:13:18;1019.244;;;5.78;56.51074
80911;BME280;70359;51.420;7.032;2024-01-27T01:15:43;1019.265;;;5.77;57.16895
80911;BME280;70359;51.420;7.032;2024-01-27T01:18:08;1019.302;;;6;56.43848
80911;BME280;70359;51.420;7.032;2024-01-27T01:20:33;1019.302;;;5.95;56.40918
80911;BME280;70359;51.420;7.032;2024-01-27T01:22:58;1019.244;;;5.77;56.60938
80911;BME280;70359;51.420;7.032;2024-01-27T01:25:23;1019.238;;;5.66;57.22266
80911;BME280;70359;51.420;7.032;2024-01-27T01:27:48;1019.242;;;5.78;57.57324
80911;BME280;70359;51.420;7.032;2024-01-27T01:30:14;1019.237;;;6.03;56.11621
80911;BME280;70359;51.420;7.032;2024-01-27T01:32:38;1019.243;;;6.06;56.04199
80911;BME280;70359;51.420;7.032;2024-01-27T01:35:04;1019.281;;;6.06;55.99805
80911;BME280;70359;51.420;7.032;2024-01-27T01:37:28;1019.305;;;6.03;56.12793
80911;BME280;70359;51.420;7.032;2024-01-27T01:39:53;1019.289;;;6.14;56.18652
80911;BME280;70359;51.420;7.032;2024-01-27T01:42:18;1019.333;;;6.09;55.95508
80911;BME280;70359;51.420;7.032;2024-01-27T01:44:43;1019.33;;;6.23;55.37988
80911;BME280;70359;51.420;7.032;2024-01-27T01:47:08;1019.347;;;6.15;55.23535
80911;BME280;70359;51.420;7.032;2024-01-27T01:49:33;1019.365;;;6.22;54.50293
80911;BME280;70359;51.420;7.032;2024-01-27T01:51:58;1019.34;;;6.21;55.12988
80911;BME280;70359;51.420;7.032;2024-01-27T01:54:24;1019.308;;;6.23;55.03125
80911;BME280;70359;51.420;7.032;2024-01-27T01:56:48;1019.292;;;6.05;55.46875
80911;BME280;70359;51.420;7.032;2024-01-27T01:59:13;1019.299;;;6.03;55.68066
80911;BME280;70359;51.420;7.032;2024-01-27T02:01:38;1019.277;;;5.94;56.27344
80911;BME280;70359;51.420;7.032;2024-01-27T02:04:04;1019.355;;;6.05;55.68164
80911;BME280;70359;51.420;7.032;2024-01-27T02:06:28;1019.385;;;6.05;55.51367
80911;BME280;70359;51.420;7.032;2024-01-27T02:08:53;1019.377;;;6.04;55.27832
80911;BME280;70359;51.420;7.032;2024-01-27T02:11:18;1019.402;;;6.02;55.40918
80911;BME280;70359;51.420;7.032;2024-01-27T02:13:43;1019.381;;;5.87;55.77051
80911;BME280;70359;51.420;7.032;2024-01-27T02:16:09;1019.412;;;5.73;56.07813
80911;BME280;70359;51.420;7.032;2024-01-27T02:18:33;1019.448;;;5.65;57.10938
80911;BME280;70359;51.420;7.032;2024-01-27T02:20:58;1019.479;;;5.61;56.96875
80911;BME280;70359;51.420;7.032;2024-01-27T02:23:23;1019.454;;;5.74;56.29199
80911;BME280;70359;51.420;7.032;2024-01-27T02:25:48;1019.451;;;5.65;56.39355
80911;BME280;70359;51.420;7.032;2024-01-27T02:28:13;1019.387;;;5.8;56.17578
80911;BME280;70359;51.420;7.032;2024-01-27T02:30:38;1019.384;;;5.64;56.36914
80911;BME280;70359;51.420;7.032;2024-01-27T02:33:04;1019.368;;;5.73;56.3584
80911;BME280;70359;51.420;7.032;2024-01-27T02:35:28;1019.362;;;5.65;56.6709
80911;BME280;70359;51.420;7.032;2024-01-27T02:37:53;1019.374;;;5.7;56.08594
80911;BME280;70359;51.420;7.032;2024-01-27T02:40:19;1019.352;;;5.89;55.66211
80911;BME280;70359;51.420;7.032;2024-01-27T02:42:43;1019.361;;;6.02;55.02832
80911;BME280;70359;51.420;7.032;2024-01-27T02:45:09;1019.382;;;5.74;55.90039
80911;BME280;70359;51.420;7.032;2024-01-27T02:47:34;1019.433;;;5.78;55.72656
80911;BME280;70359;51.420;7.032;2024-01-27T02:49:59;1019.399;;;5.91;55.55176
80911;BME280;70359;51.420;7.032;2024-01-27T02:52:24;1019.347;;;5.68;56.05957
80911;BME280;70359;51.420;7.032;2024-01-27T02:54:49;1019.353;;;5.65;56.33789
80911;BME280;70359;51.420;7.032;2024-01-27T02:57:14;1019.425;;;5.69;55.83691
80911;BME280;70359;51.420;7.032;2024-01-27T02:59:39;1019.38;;;5.83;55.6543
80911;BME280;70359;51.420;7.032;2024-01-27T03:02:04;1019.382;;;5.78;55.91699
80911;BME280;70359;51.420;7.032;2024-01-27T03:04:29;1019.367;;;5.81;55.92188
80911;BME280;70359;51.420;7.032;2024-01-27T03:06:54;1019.35;;;5.91;55.44043
80911;BME280;70359;51.420;7.032;2024-01-27T03:09:19;1019.365;;;5.75;56.15918
80911;BME280;70359;51.420;7.032;2024-01-27T03:11:44;1019.417;;;5.78;56.39746
80911;BME280;70359;51.420;7.032;2024-01-27T03:14:09;1019.414;;;5.72;56.5459
80911;BME280;70359;51.420;7.032;2024-01-27T03:16:34;1019.42;;;5.83;56.1123
80911;BME280;70359;51.420;7.032;2024-01-27T03:18:59;1019.4;;;5.95;55.35645
80911;BME280;70359;51.420;7.032;2024-01-27T03:21:24;1019.42;;;5.95;55.4668
80911;BME280;70359;51.420;7.032;2024-01-27T03:23:49;1019.445;;;6.03;54.97266
80911;BME280;70359;51.420;7.032;2024-01-27T03:26:14;1019.414;;;6.07;54.79883
80911;BME280;70359;51.420;7.032;2024-01-27T03:28:39;1019.45;;;5.96;55.32324
80911;BME280;70359;51.420;7.032;2024-01-27T03:31:04;1019.379;;;6.02;54.91602
80911;BME280;70359;51.420;7.032;2024-01-27T03:33:29;1019.318;;;5.87;55.31152
80911;BME280;70359;51.420;7.032;2024-01-27T03:35:54;1019.4;;;6;54.85742
80911;BME280;70359;51.420;7.032;2024-01-27T03:38:19;1019.359;;;5.9;55.30371
80911;BME280;70359;51.420;7.032;2024-01-27T03:40:44;1019.334;;;5.89;55.38184
80911;BME280;70359;51.420;7.032;2024-01-27T03:43:09;1019.414;;;5.94;54.82715
80911;BME280;70359;51.420;7.032;2024-01-27T03:45:34;1019.449;;;6.01;54.63281
80911;BME280;70359;51.420;7.032;2024-01-27T03:47:59;1019.414;;;5.94;55.01758
80911;BME280;70359;51.420;7.032;2024-01-27T03:50:24;1019.487;;;5.86;55.33203
80911;BME280;70359;51.420;7.032;2024-01-27T03:52:49;1019.457;;;5.74;55.54199
80911;BME280;70359;51.420;7.032;2024-01-27T03:55:14;1019.544;;;5.64;55.78613
80911;BME280;70359;51.420;7.032;2024-01-27T03:57:39;1019.526;;;5.57;56.13672
80911;BME280;70359;51.420;7.032;2024-01-27T04:00:04;1019.527;;;5.58;55.67871
80911;BME280;70359;51.420;7.032;2024-01-27T04:02:29;1019.583;;;5.49;56.2832
80911;BME280;70359;51.420;7.032;2024-01-27T04:04:54;1019.667;;;5.58;56.00195
80911;BME280;70359;51.420;7.032;2024-01-27T04:07:19;1019.655;;;5.63;55.78418
80911;BME280;70359;51.420;7.032;2024-01-27T04:09:44;1019.671;;;5.69;55.55664
80911;BME280;70359;51.420;7.032;2024-01-27T04:12:09;1019.728;;;5.65;55.62988
80911;BME280;70359;51.420;7.032;2024-01-27T04:14:34;1019.739;;;5.64;55.5625
80911;BME280;70359;51.420;7.032;2024-01-27T04:16:59;1019.73;;;5.55;55.54004
80911;BME280;70359;51.420;7.032;2024-01-27T04:19:24;1019.673;;;5.64;55.55078
80911;BME280;70359;51.420;7.032;2024-01-27T04:21:49;1019.681;;;5.59;55.80273
80911;BME280;70359;51.420;7.032;2024-01-27T04:24:14;1019.752;;;5.59;55.45508
80911;BME280;70359;51.420;7.032;2024-01-27T04:26:39;1019.733;;;5.5;55.96973
80911;BME280;70359;51.420;7.032;2024-01-27T04:29:04;1019.743;;;5.54;56.08594
80911;BME280;70359;51.420;7.032;2024-01-27T04:31:29;1019.698;;;5.49;55.84473
80911;BME280;70359;51.420;7.032;2024-01-27T04:33:54;1019.699;;;5.52;55.7041
80911;BME280;70359;51.420;7.032;2024-01-27T04:36:28;1019.642;;;5.26;56.43066
80911;BME280;70359;51.420;7.032;2024-01-27T04:38:44;1019.728;;;5.23;56.60547
80911;BME280;70359;51.420;7.032;2024-01-27T04:41:09;1019.725;;;5.2;56.87109
80911;BME280;70359;51.420;7.032;2024-01-27T04:43:34;1019.681;;;5.24;57.08887
80911;BME280;70359;51.420;7.032;2024-01-27T04:45:59;1019.665;;;5.3;56.33594
80911;BME280;70359;51.420;7.032;2024-01-27T04:48:24;1019.676;;;5.3;56.57227
80911;BME280;70359;51.420;7.032;2024-01-27T04:50:49;1019.666;;;5.42;56.11719
80911;BME280;70359;51.420;7.032;2024-01-27T04:53:14;1019.7;;;5.4;56.24805
80911;BME280;70359;51.420;7.032;2024-01-27T04:55:39;1019.76;;;5.26;56.3418
80911;BME280;70359;51.420;7.032;2024-01-27T04:58:04;1019.725;;;5.28;56.37793
80911;BME280;70359;51.420;7.032;2024-01-27T05:00:29;1019.712;;;5.31;56.53809
80911;BME280;70359;51.420;7.032;2024-01-27T05:02:54;1019.718;;;5.36;56.25391
80911;BME280;70359;51.420;7.032;2024-01-27T05:05:19;1019.798;;;5.35;56.57617
80911;BME280;70359;51.420;7.032;2024-01-27T05:07:44;1019.766;;;5.41;56.10352
80911;BME280;70359;51.420;7.032;2024-01-27T05:10:09;1019.694;;;5.36;55.99707
80911;BME280;70359;51.420;7.032;2024-01-27T05:12:34;1019.763;;;5.21;56.4707
80911;BME280;70359;51.420;7.032;2024-01-27T05:14:59;1019.688;;;5.26;56.39648
80911;BME280;70359;51.420;7.032;2024-01-27T05:17:24;1019.703;;;5.33;56.19336
80911;BME280;70359;51.420;7.032;2024-01-27T05:19:49;1019.676;;;5.43;55.81445
80911;BME280;70359;51.420;7.032;2024-01-27T05:22:14;1019.665;;;5.28;56.19922
80911;BME280;70359;51.420;7.032;2024-01-27T05:24:39;1019.592;;;5.35;55.82813
80911;BME280;70359;51.420;7.032;2024-01-27T05:27:04;1019.58;;;5.18;56.35352
80911;BME280;70359;51.420;7.032;2024-01-27T05:29:29;1019.568;;;5.36;55.60449
80911;BME280;70359;51.420;7.032;2024-01-27T05:31:54;1019.591;;;5.39;55.44043
80911;BME280;70359;51.420;7.032;2024-01-27T05:34:19;1019.587;;;5.43;55.2334
80911;BME280;70359;51.420;7.032;2024-01-27T05:36:44;1019.61;;;5.39;55.54102
80911;BME280;70359;51.420;7.032;2024-01-27T05:39:09;1019.581;;;5.34;55.74707
80911;BME280;70359;51.420;7.032;2024-01-27T05:41:34;1019.653;;;5.36;55.79395
80911;BME280;70359;51.420;7.032;2024-01-27T05:43:59;1019.666;;;5.36;55.3584
80911;BME280;70359;51.420;7.032;2024-01-27T05:46:24;1019.65;;;5.15;56.46191
80911;BME280;70359;51.420;7.032;2024-01-27T05:48:49;1019.694;;;5.11;56.34375
80911;BME280;70359;51.420;7.032;2024-01-27T05:51:14;1019.807;;;5.12;56.19043
80911;BME280;70359;51.420;7.032;2024-01-27T05:53:39;1019.671;;;5.15;56.07031
80911;BME280;70359;51.420;7.032;2024-01-27T05:56:04;1019.656;;;5.2;55.77441
80911;BME280;70359;51.420;7.032;2024-01-27T05:58:29;1019.74;;;5.17;55.9375
80911;BME280;70359;51.420;7.032;2024-01-27T06:00:54;1019.676;;;5.17;55.96094
80911;BME280;70359;51.420;7.032;2024-01-27T06:03:19;1019.725;;;5.01;56.4209
80911;BME280;70359;51.420;7.032;2024-01-27T06:05:44;1019.759;;;5.06;56.32715
80911;BME280;70359;51.420;7.032;2024-01-27T06:08:09;1019.775;;;5;56.64355
80911;BME280;70359;51.420;7.032;2024-01-27T06:10:34;1019.813;;;5.05;56.49316
80911;BME280;70359;51.420;7.032;2024-01-27T06:12:59;1019.817;;;4.84;56.85742
80911;BME280;70359;51.420;7.032;2024-01-27T06:15:24;1019.784;;;4.93;56.71191
80911;BME280;70359;51.420;7.032;2024-01-27T06:17:49;1019.783;;;4.87;57.15137
80911;BME280;70359;51.420;7.032;2024-01-27T06:20:14;1019.799;;;4.93;56.98047
80911;BME280;70359;51.420;7.032;2024-01-27T06:22:39;1019.777;;;4.87;56.87207
80911;BME280;70359;51.420;7.032;2024-01-27T06:25:04;1019.811;;;4.96;56.88379
80911;BME280;70359;51.420;7.032;2024-01-27T06:27:29;1019.841;;;4.94;56.74805
80911;BME280;70359;51.420;7.032;2024-01-27T06:29:54;1019.876;;;4.94;56.83691
80911;BME280;70359;51.420;7.032;2024-01-27T06:32:19;1019.838;;;4.91;56.75488
80911;BME280;70359;51.420;7.032;2024-01-27T06:34:44;1019.778;;;4.89;56.70605
80911;BME280;70359;51.420;7.032;2024-01-27T06:37:09;1019.791;;;4.87;56.9502
80911;BME280;70359;51.420;7.032;2024-01-27T06:39:34;1019.844;;;4.86;56.77051
80911;BME280;70359;51.420;7.032;2024-01-27T06:41:59;1019.798;;;4.84;56.8457
80911;BME280;70359;51.420;7.032;2024-01-27T06:44:24;1019.891;;;4.88;56.70508
80911;BME280;70359;51.420;7.032;2024-01-27T06:46:49;1019.956;;;4.77;56.79297
80911;BME280;70359;51.420;7.032;2024-01-27T06:49:14;1019.925;;;4.79;56.72852
80911;BME280;70359;51.420;7.032;2024-01-27T06:51:39;1019.94;;;4.67;57.18066
80911;BME280;70359;51.420;7.032;2024-01-27T06:54:04;1019.932;;;4.59;57.47168
80911;BME280;70359;51.420;7.032;2024-01-27T06:56:29;1019.918;;;4.57;57.55859
80911;BME280;70359;51.420;7.032;2024-01-27T06:58:54;1020.007;;;4.54;57.64355
80911;BME280;70359;51.420;7.032;2024-01-27T07:01:19;1020.047;;;4.53;57.38672
80911;BME280;70359;51.420;7.032;2024-01-27T07:03:44;1020.041;;;4.65;57.33496
80911;BME280;70359;51.420;7.032;2024-01-27T07:06:09;1020.12;;;4.63;57.44434
80911;BME280;70359;51.420;7.032;2024-01-27T07:08:34;1020.135;;;4.59;57.5166
80911;BME280;70359;51.420;7.032;2024-01-27T07:10:59;1020.121;;;4.68;57.19336
80911;BME280;70359;51.420;7.032;2024-01-27T07:13:24;1020.181;;;4.67;57.19238
80911;BME280;70359;51.420;7.032;2024-01-27T07:15:49;1020.213;;;4.64;57.31152
80911;BME280;70359;51.420;7.032;2024-01-27T07:18:14;1020.177;;;4.65;57.21191
80911;BME280;70359;51.420;7.032;2024-01-27T07:20:39;1020.165;;;4.73;56.79785
80911;BME280;70359;51.420;7.032;2024-01-27T07:23:04;1020.201;;;4.65;57.02246
80911;BME280;70359;51.420;7.032;2024-01-27T07:25:29;1020.201;;;4.69;57.07129
80911;BME280;70359;51.420;7.032;2024-01-27T07:27:54;1020.32;;;4.58;57.49316
80911;BME280;70359;51.420;7.032;2024-01-27T07:30:19;1020.405;;;4.7;57.12988
80911;BME280;70359;51.420;7.032;2024-01-27T07:32:44;1020.385;;;4.66;57.14648
80911;BME280;70359;51.420;7.032;2024-01-27T07:35:09;1020.351;;;4.69;56.81445
80911;BME280;70359;51.420;7.032;2024-01-27T07:37:34;1020.312;;;4.7;57.14063
80911;BME280;70359;51.420;7.032;2024-01-27T07:39:59;1020.272;;;4.66;57.31348
80911;BME280;70359;51.420;7.032;2024-01-27T07:42:24;1020.353;;;4.66;57.42578
80911;BME280;70359;51.420;7.032;2024-01-27T07:44:49;1020.424;;;4.72;57.28711
80911;BME280;70359;51.420;7.032;2024-01-27T07:47:14;1020.403;;;4.67;57.37012
80911;BME280;70359;51.420;7.032;2024-01-27T07:49:39;1020.513;;;4.75;57.33789
80911;BME280;70359;51.420;7.032;2024-01-27T07:52:04;1020.442;;;4.74;57.34668
80911;BME280;70359;51.420;7.032;2024-01-27T07:54:29;1020.562;;;4.81;56.65234
80911;BME280;70359;51.420;7.032;2024-01-27T07:56:54;1020.464;;;4.74;57.41406
80911;BME280;70359;51.420;7.032;2024-01-27T07:59:19;1020.471;;;4.85;57.31738
80911;BME280;70359;51.420;7.032;2024-01-27T08:01:44;1020.492;;;4.76;57.56152
80911;BME280;70359;51.420;7.032;2024-01-27T08:04:09;1020.516;;;4.9;57.31152
80911;BME280;70359;51.420;7.032;2024-01-27T08:06:34;1020.553;;;4.99;56.95508
80911;BME280;70359;51.420;7.032;2024-01-27T08:08:59;1020.59;;;5.07;56.45215
80911;BME280;70359;51.420;7.032;2024-01-27T08:11:24;1020.612;;;5.1;56.55566
80911;BME280;70359;51.420;7.032;2024-01-27T08:13:49;1020.625;;;5.15;56.04883
80911;BME280;70359;51.420;7.032;2024-01-27T08:16:14;1020.601;;;5.2;56.19922
80911;BME280;70359;51.420;7.032;2024-01-27T08:18:39;1020.66;;;5.22;56.01172
80911;BME280;70359;51.420;7.032;2024-01-27T08:21:04;1020.614;;;5.27;55.96387
80911;BME280;70359;51.420;7.032;2024-01-27T08:23:29;1020.557;;;5.2;56.08789
80911;BME280;70359;51.420;7.032;2024-01-27T08:25:54;1020.503;;;5.21;56.39063
80911;BME280;70359;51.420;7.032;2024-01-27T08:28:19;1020.491;;;5.26;56.15137
80911;BME280;70359;51.420;7.032;2024-01-27T08:30:44;1020.505;;;5.29;56.12305
80911;BME280;70359;51.420;7.032;2024-01-27T08:33:09;1020.561;;;5.28;56.34473
80911;BME280;70359;51.420;7.032;2024-01-27T08:35:34;1020.569;;;5.34;56.26172
80911;BME280;70359;51.420;7.032;2024-01-27T08:37:59;1020.656;;;5.3;56.26855
80911;BME280;70359;51.420;7.032;2024-01-27T08:40:24;1020.666;;;5.39;56.37012
80911;BME280;70359;51.420;7.032;2024-01-27T08:42:49;1020.591;;;5.32;56.61914
80911;BME280;70359;51.420;7.032;2024-01-27T08:45:14;1020.595;;;5.48;56.03418
80911;BME280;70359;51.420;7.032;2024-01-27T08:47:39;1020.651;;;5.48;56.02344
80911;BME280;70359;51.420;7.032;2024-01-27T08:50:05;1020.675;;;5.52;55.96094
80911;BME280;70359;51.420;7.032;2024-01-27T08:52:29;1020.779;;;5.52;56.12891
80911;BME280;70359;51.420;7.032;2024-01-27T08:54:54;1020.779;;;5.53;55.72754
80911;BME280;70359;51.420;7.032;2024-01-27T08:57:19;1020.815;;;5.53;55.95215
80911;BME280;70359;51.420;7.032;2024-01-27T08:59:44;1020.825;;;5.55;56.06543
80911;BME280;70359;51.420;7.032;2024-01-27T09:02:09;1020.788;;;5.51;56.20605
80911;BME280;70359;51.420;7.032;2024-01-27T09:04:34;1020.76;;;5.5;56.02637
80911;BME280;70359;51.420;7.032;2024-01-27T09:06:59;1020.768;;;5.48;56.42578
80911;BME280;70359;51.420;7.032;2024-01-27T09:09:24;1020.753;;;5.54;56.35645
80911;BME280;70359;51.420;7.032;2024-01-27T09:11:49;1020.737;;;5.46;56.78223
80911;BME280;70359;51.420;7.032;2024-01-27T09:14:14;1020.647;;;5.64;56.23438
80911;BME280;70359;51.420;7.032;2024-01-27T09:16:39;1020.587;;;5.55;56.64844
80911;BME280;70359;51.420;7.032;2024-01-27T09:19:04;1020.587;;;5.65;56.41406
80911;BME280;70359;51.420;7.032;2024-01-27T09:21:29;1020.617;;;5.55;56.03223
80911;BME280;70359;51.420;7.032;2024-01-27T09:23:54;1020.635;;;5.69;56.12793
80911;BME280;70359;51.420;7.032;2024-01-27T09:26:19;1020.673;;;5.71;56.41113
80911;BME280;70359;51.420;7.032;2024-01-27T09:28:44;1020.67;;;5.79;55.8623
80911;BME280;70359;51.420;7.032;2024-01-27T09:31:10;1020.692;;;5.87;56.17383
80911;BME280;70359;51.420;7.032;2024-01-27T09:33:34;1020.68;;;5.83;56.1123
80911;BME280;70359;51.420;7.032;2024-01-27T09:35:59;1020.621;;;5.96;55.72754
80911;BME280;70359;51.420;7.032;2024-01-27T09:38:24;1020.631;;;5.95;55.94922
80911;BME280;70359;51.420;7.032;2024-01-27T09:40:49;1020.567;;;6.03;55.71387
80911;BME280;70359;51.420;7.032;2024-01-27T09:43:15;1020.529;;;6.04;55.99414
80911;BME280;70359;51.420;7.032;2024-01-27T09:45:39;1020.556;;;6.17;55.68652
80911;BME280;70359;51.420;7.032;2024-01-27T09:48:05;1020.495;;;6.2;56.04883
80911;BME280;70359;51.420;7.032;2024-01-27T09:50:29;1020.556;;;6.24;54.75195
80911;BME280;70359;51.420;7.032;2024-01-27T09:52:54;1020.564;;;6.18;54.90234
80911;BME280;70359;51.420;7.032;2024-01-27T09:55:19;1020.627;;;6.42;54.88867
80911;BME280;70359;51.420;7.032;2024-01-27T09:57:44;1020.671;;;6.4;55.2334
80911;BME280;70359;51.420;7.032;2024-01-27T10:00:10;1020.673;;;6.42;54.42676
80911;BME280;70359;51.420;7.032;2024-01-27T10:02:34;1020.634;;;6.5;54.875
80911;BME280;70359;51.420;7.032;2024-01-27T10:04:59;1020.605;;;6.63;54.57813
80911;BME280;70359;51.420;7.032;2024-01-27T10:07:24;1020.622;;;6.65;54.81543
80911;BME280;70359;51.420;7.032;2024-01-27T10:09:52;1020.677;;;6.78;54.11328
80911;BME280;70359;51.420;7.032;2024-01-27T10:12:15;1020.683;;;6.83;54.40039
80911;BME280;70359;51.420;7.032;2024-01-27T10:14:42;1020.78;;;6.92;54.09668
80911;BME280;70359;51.420;7.032;2024-01-27T10:17:04;1020.794;;;6.89;54.18262
80911;BME280;70359;51.420;7.032;2024-01-27T10:19:29;1020.874;;;7.01;53.79297
80911;BME280;70359;51.420;7.032;2024-01-27T10:21:59;1020.823;;;6.99;53.8584
80911;BME280;70359;51.420;7.032;2024-01-27T10:24:19;1020.859;;;7.05;53.53906
80911;BME280;70359;51.420;7.032;2024-01-27T10:26:44;1020.866;;;7;53.17383
80911;BME280;70359;51.420;7.032;2024-01-27T10:29:09;1020.858;;;7.2;53.83984
80911;BME280;70359;51.420;7.032;2024-01-27T10:31:34;1020.877;;;7.14;53.65234
80911;BME280;70359;51.420;7.032;2024-01-27T10:34:00;1020.875;;;7.26;53.1377
80911;BME280;70359;51.420;7.032;2024-01-27T10:36:25;1020.853;;;7.3;52.40039
80911;BME280;70359;51.420;7.032;2024-01-27T10:38:49;1020.876;;;7.36;53.43164
80911;BME280;70359;51.420;7.032;2024-01-27T10:41:17;1020.919;;;7.33;53.28223
80911;BME280;70359;51.420;7.032;2024-01-27T10:43:39;1020.875;;;7.4;53.55957
80911;BME280;70359;51.420;7.032;2024-01-27T10:46:05;1020.904;;;7.47;53.37598
80911;BME280;70359;51.420;7.032;2024-01-27T10:48:29;1020.91;;;7.54;53.70117
80911;BME280;70359;51.420;7.032;2024-01-27T10:50:55;1020.874;;;7.66;53.05273
80911;BME280;70359;51.420;7.032;2024-01-27T10:53:22;1020.85;;;7.68;52.68164
80911;BME280;70359;51.420;7.032;2024-01-27T10:55:45;1020.784;;;7.75;52.41992
80911;BME280;70359;51.420;7.032;2024-01-27T10:58:10;1020.768;;;7.72;52.7666
80911;BME280;70359;51.420;7.032;2024-01-27T11:00:35;1020.789;;;7.85;52.51172
80911;BME280;70359;51.420;7.032;2024-01-27T11:03:01;1020.791;;;7.9;52.65137
80911;BME280;70359;51.420;7.032;2024-01-27T11:05:25;1020.82;;;8;52.05566
80911;BME280;70359;51.420;7.032;2024-01-27T11:07:50;1020.813;;;8;52.4502
80911;BME280;70359;51.420;7.032;2024-01-27T11:10:15;1020.822;;;8.13;51.08984
80911;BME280;70359;51.420;7.032;2024-01-27T11:12:40;1020.892;;;8.07;51.44434
80911;BME280;70359;51.420;7.032;2024-01-27T11:15:05;1020.909;;;8.13;51.89063
80911;BME280;70359;51.420;7.032;2024-01-27T11:17:30;1020.867;;;8.18;51.86328
80911;BME280;70359;51.420;7.032;2024-01-27T11:19:55;1020.917;;;8.26;51.63477
80911;BME280;70359;51.420;7.032;2024-01-27T11:22:27;1020.94;;;8.23;51.38477
80911;BME280;70359;51.420;7.032;2024-01-27T11:24:45;1020.958;;;8.34;51.00098
80911;BME280;70359;51.420;7.032;2024-01-27T11:27:10;1020.981;;;8.32;50.91992
80911;BME280;70359;51.420;7.032;2024-01-27T11:29:35;1021.029;;;8.39;51.54883
80911;BME280;70359;51.420;7.032;2024-01-27T11:32:00;1021.038;;;8.43;51.29492
80911;BME280;70359;51.420;7.032;2024-01-27T11:34:25;1021.007;;;8.51;50.64844
80911;BME280;70359;51.420;7.032;2024-01-27T11:36:50;1021.021;;;8.54;50.90137
80911;BME280;70359;51.420;7.032;2024-01-27T11:39:27;1020.944;;;8.66;50.28223
80911;BME280;70359;51.420;7.032;2024-01-27T11:41:40;1020.926;;;8.63;50.74219
80911;BME280;70359;51.420;7.032;2024-01-27T11:44:05;1020.934;;;8.67;49.94434
80911;BME280;70359;51.420;7.032;2024-01-27T11:46:30;1020.878;;;8.65;50.40527
80911;BME280;70359;51.420;7.032;2024-01-27T11:48:55;1020.843;;;8.65;49.50098
80911;BME280;70359;51.420;7.032;2024-01-27T11:51:20;1020.819;;;8.68;50.4873
80911;BME280;70359;51.420;7.032;2024-01-27T11:53:45;1020.798;;;8.68;49.53809
80911;BME280;70359;51.420;7.032;2024-01-27T11:56:10;1020.875;;;8.78;50.13867
80911;BME280;70359;51.420;7.032;2024-01-27T11:58:35;1020.883;;;8.87;49.43555
80911;BME280;70359;51.420;7.032;2024-01-27T12:01:00;1020.763;;;8.88;49.57324
80911;BME280;70359;51.420;7.032;2024-01-27T12:03:25;1020.768;;;8.94;49.43262
80911;BME280;70359;51.420;7.032;2024-01-27T12:05:50;1020.724;;;8.95;48.7207
80911;BME280;70359;51.420;7.032;2024-01-27T12:08:15;1020.781;;;8.96;48.50781
80911;BME280;70359;51.420;7.032;2024-01-27T12:10:40;1020.735;;;8.92;48.48047
80911;BME280;70359;51.420;7.032;2024-01-27T12:13:05;1020.706;;;8.9;48.17285
80911;BME280;70359;51.420;7.032;2024-01-27T12:15:30;1020.75;;;8.94;48.78906
80911;BME280;70359;51.420;7.032;2024-01-27T12:17:55;1020.8;;;8.86;48.86914
80911;BME280;70359;51.420;7.032;2024-01-27T12:20:21;1020.744;;;8.94;47.33984
80911;BME280;70359;51.420;7.032;2024-01-27T12:22:45;1020.77;;;8.87;48.29395
80911;BME280;70359;51.420;7.032;2024-01-27T12:25:13;1020.845;;;8.93;49.53223
80911;BME280;70359;51.420;7.032;2024-01-27T12:27:35;1020.802;;;8.91;49.2373
80911;BME280;70359;51.420;7.032;2024-01-27T12:30:00;1020.765;;;8.91;48.85254